sensor_id;sensor_type;location;lat;lon;timestamp;P1;durP1;ratioP1;P2;durP2;ratioP2
10896;SDS011;5501;51.176;6.470;2023-02-28T00:00:31;4.28;;;3.03;;
10896;SDS011;5501;51.176;6.470;2023-02-28T00:05:33;7.30;;;2.63;;
10896;SDS011;5501;51.176;6.470;2023-02-28T00:10:35;3.58;;;2.30;;
10896;SDS011;5501;51.176;6.470;2023-02-28T00:15:37;5.32;;;2.78;;
10896;SDS011;5501;51.176;6.470;2023-02-28T00:20:38;11.00;;;3.45;;
10896;SDS011;5501;51.176;6.470;2023-02-28T00:25:40;5.47;;;2.95;;
10896;SDS011;5501;51.176;6.470;2023-02-28T00:30:41;6.07;;;2.78;;
10896;SDS011;5501;51.176;6.470;2023-02-28T00:35:43;4.35;;;2.80;;
10896;SDS011;5501;51.176;6.470;2023-02-28T00:40:47;3.83;;;2.60;;
10896;SDS011;5501;51.176;6.470;2023-02-28T00:45:49;3.67;;;2.70;;
10896;SDS011;5501;51.176;6.470;2023-02-28T00:50:50;3.45;;;2.60;;
10896;SDS011;5501;51.176;6.470;2023-02-28T00:55:52;14.95;;;2.85;;
10896;SDS011;5501;51.176;6.470;2023-02-28T01:00:53;3.00;;;2.10;;
10896;SDS011;5501;51.176;6.470;2023-02-28T01:05:55;4.20;;;2.70;;
10896;SDS011;5501;51.176;6.470;2023-02-28T01:10:56;6.13;;;2.95;;
10896;SDS011;5501;51.176;6.470;2023-02-28T01:15:58;4.88;;;2.90;;
10896;SDS011;5501;51.176;6.470;2023-02-28T01:21:04;4.50;;;3.28;;
10896;SDS011;5501;51.176;6.470;2023-02-28T01:26:07;3.80;;;2.70;;
10896;SDS011;5501;51.176;6.470;2023-02-28T01:31:13;4.22;;;2.70;;
10896;SDS011;5501;51.176;6.470;2023-02-28T01:36:18;4.25;;;2.50;;
10896;SDS011;5501;51.176;6.470;2023-02-28T01:41:22;4.55;;;3.00;;
10896;SDS011;5501;51.176;6.470;2023-02-28T01:46:27;4.50;;;2.70;;
10896;SDS011;5501;51.176;6.470;2023-02-28T01:51:30;7.95;;;2.92;;
10896;SDS011;5501;51.176;6.470;2023-02-28T01:56:38;4.45;;;2.50;;
10896;SDS011;5501;51.176;6.470;2023-02-28T02:01:39;4.55;;;2.67;;
10896;SDS011;5501;51.176;6.470;2023-02-28T02:06:43;4.60;;;2.85;;
10896;SDS011;5501;51.176;6.470;2023-02-28T02:11:47;3.90;;;2.95;;
10896;SDS011;5501;51.176;6.470;2023-02-28T02:27:18;4.30;;;2.53;;
10896;SDS011;5501;51.176;6.470;2023-02-28T02:37:57;4.10;;;2.80;;
10896;SDS011;5501;51.176;6.470;2023-02-28T02:43:19;6.53;;;3.55;;
10896;SDS011;5501;51.176;6.470;2023-02-28T02:48:31;5.82;;;3.13;;
10896;SDS011;5501;51.176;6.470;2023-02-28T02:53:37;6.80;;;2.72;;
10896;SDS011;5501;51.176;6.470;2023-02-28T02:58:43;5.35;;;3.63;;
10896;SDS011;5501;51.176;6.470;2023-02-28T03:03:45;3.53;;;2.17;;
10896;SDS011;5501;51.176;6.470;2023-02-28T03:08:47;3.92;;;3.05;;
10896;SDS011;5501;51.176;6.470;2023-02-28T03:14:11;5.15;;;3.17;;
10896;SDS011;5501;51.176;6.470;2023-02-28T03:30:18;4.82;;;2.88;;
10896;SDS011;5501;51.176;6.470;2023-02-28T03:35:26;2.92;;;2.35;;
10896;SDS011;5501;51.176;6.470;2023-02-28T03:40:33;6.95;;;3.00;;
10896;SDS011;5501;51.176;6.470;2023-02-28T03:45:38;10.88;;;3.38;;
10896;SDS011;5501;51.176;6.470;2023-02-28T03:50:43;6.03;;;3.03;;
10896;SDS011;5501;51.176;6.470;2023-02-28T03:55:48;6.25;;;2.83;;
10896;SDS011;5501;51.176;6.470;2023-02-28T04:00:59;4.07;;;3.10;;
10896;SDS011;5501;51.176;6.470;2023-02-28T04:06:13;3.30;;;2.67;;
10896;SDS011;5501;51.176;6.470;2023-02-28T04:16:22;2.83;;;2.38;;
10896;SDS011;5501;51.176;6.470;2023-02-28T04:21:37;6.00;;;2.55;;
10896;SDS011;5501;51.176;6.470;2023-02-28T04:26:44;4.53;;;2.15;;
10896;SDS011;5501;51.176;6.470;2023-02-28T04:31:47;4.07;;;2.30;;
10896;SDS011;5501;51.176;6.470;2023-02-28T04:36:48;4.13;;;2.33;;
10896;SDS011;5501;51.176;6.470;2023-02-28T04:42:16;8.98;;;3.03;;
10896;SDS011;5501;51.176;6.470;2023-02-28T04:47:17;5.93;;;3.25;;
10896;SDS011;5501;51.176;6.470;2023-02-28T04:52:19;2.67;;;2.13;;
10896;SDS011;5501;51.176;6.470;2023-02-28T04:57:21;3.97;;;2.30;;
10896;SDS011;5501;51.176;6.470;2023-02-28T05:02:23;3.85;;;2.38;;
10896;SDS011;5501;51.176;6.470;2023-02-28T05:07:25;2.25;;;1.65;;
10896;SDS011;5501;51.176;6.470;2023-02-28T05:12:26;5.13;;;2.50;;
10896;SDS011;5501;51.176;6.470;2023-02-28T05:17:28;3.42;;;2.53;;
10896;SDS011;5501;51.176;6.470;2023-02-28T05:22:30;3.38;;;2.50;;
10896;SDS011;5501;51.176;6.470;2023-02-28T05:27:31;7.13;;;2.45;;
10896;SDS011;5501;51.176;6.470;2023-02-28T05:32:33;5.50;;;2.05;;
10896;SDS011;5501;51.176;6.470;2023-02-28T05:37:34;4.70;;;2.33;;
10896;SDS011;5501;51.176;6.470;2023-02-28T05:42:36;5.10;;;2.42;;
10896;SDS011;5501;51.176;6.470;2023-02-28T05:47:38;3.75;;;2.55;;
10896;SDS011;5501;51.176;6.470;2023-02-28T05:52:39;3.88;;;2.35;;
10896;SDS011;5501;51.176;6.470;2023-02-28T05:57:41;5.20;;;2.47;;
10896;SDS011;5501;51.176;6.470;2023-02-28T06:02:43;3.88;;;2.50;;
10896;SDS011;5501;51.176;6.470;2023-02-28T06:07:45;4.10;;;2.38;;
10896;SDS011;5501;51.176;6.470;2023-02-28T06:12:46;2.50;;;1.88;;
10896;SDS011;5501;51.176;6.470;2023-02-28T06:17:48;5.53;;;2.10;;
10896;SDS011;5501;51.176;6.470;2023-02-28T06:22:49;2.55;;;2.00;;
10896;SDS011;5501;51.176;6.470;2023-02-28T06:27:55;3.38;;;2.67;;
10896;SDS011;5501;51.176;6.470;2023-02-28T06:32:57;4.10;;;2.30;;
10896;SDS011;5501;51.176;6.470;2023-02-28T06:37:58;6.10;;;2.35;;
10896;SDS011;5501;51.176;6.470;2023-02-28T06:43:00;3.80;;;2.55;;
10896;SDS011;5501;51.176;6.470;2023-02-28T06:48:01;4.47;;;2.33;;
10896;SDS011;5501;51.176;6.470;2023-02-28T06:53:03;4.82;;;2.88;;
10896;SDS011;5501;51.176;6.470;2023-02-28T06:58:04;2.65;;;2.08;;
10896;SDS011;5501;51.176;6.470;2023-02-28T07:03:15;6.60;;;2.50;;
10896;SDS011;5501;51.176;6.470;2023-02-28T07:08:18;3.65;;;2.45;;
10896;SDS011;5501;51.176;6.470;2023-02-28T07:13:20;3.75;;;2.03;;
10896;SDS011;5501;51.176;6.470;2023-02-28T07:18:22;11.60;;;2.38;;
10896;SDS011;5501;51.176;6.470;2023-02-28T07:23:25;2.20;;;1.98;;
10896;SDS011;5501;51.176;6.470;2023-02-28T07:28:26;3.00;;;2.10;;
10896;SDS011;5501;51.176;6.470;2023-02-28T07:33:28;2.92;;;1.85;;
10896;SDS011;5501;51.176;6.470;2023-02-28T07:38:30;2.38;;;1.90;;
10896;SDS011;5501;51.176;6.470;2023-02-28T07:43:32;3.30;;;2.25;;
10896;SDS011;5501;51.176;6.470;2023-02-28T07:48:34;3.13;;;2.28;;
10896;SDS011;5501;51.176;6.470;2023-02-28T07:53:35;3.72;;;2.35;;
10896;SDS011;5501;51.176;6.470;2023-02-28T07:58:37;4.45;;;2.13;;
10896;SDS011;5501;51.176;6.470;2023-02-28T08:03:39;5.13;;;2.53;;
10896;SDS011;5501;51.176;6.470;2023-02-28T08:08:42;3.08;;;2.22;;
10896;SDS011;5501;51.176;6.470;2023-02-28T08:13:43;2.47;;;2.25;;
10896;SDS011;5501;51.176;6.470;2023-02-28T08:18:46;4.30;;;2.92;;
10896;SDS011;5501;51.176;6.470;2023-02-28T08:23:47;5.05;;;2.28;;
10896;SDS011;5501;51.176;6.470;2023-02-28T08:28:49;3.50;;;2.03;;
10896;SDS011;5501;51.176;6.470;2023-02-28T08:33:51;3.88;;;2.50;;
10896;SDS011;5501;51.176;6.470;2023-02-28T08:38:54;2.72;;;1.70;;
10896;SDS011;5501;51.176;6.470;2023-02-28T08:43:55;5.32;;;1.90;;
10896;SDS011;5501;51.176;6.470;2023-02-28T08:48:57;3.10;;;2.13;;
10896;SDS011;5501;51.176;6.470;2023-02-28T08:54:01;1.50;;;1.40;;
10896;SDS011;5501;51.176;6.470;2023-02-28T08:59:02;5.60;;;1.58;;
10896;SDS011;5501;51.176;6.470;2023-02-28T09:04:04;1.92;;;1.50;;
10896;SDS011;5501;51.176;6.470;2023-02-28T09:09:08;0.90;;;0.85;;
10896;SDS011;5501;51.176;6.470;2023-02-28T09:14:10;1.45;;;1.20;;
10896;SDS011;5501;51.176;6.470;2023-02-28T09:19:12;3.85;;;1.08;;
10896;SDS011;5501;51.176;6.470;2023-02-28T09:24:14;0.90;;;0.90;;
10896;SDS011;5501;51.176;6.470;2023-02-28T09:29:16;2.03;;;1.00;;
10896;SDS011;5501;51.176;6.470;2023-02-28T09:34:18;2.58;;;1.38;;
10896;SDS011;5501;51.176;6.470;2023-02-28T09:39:21;6.95;;;1.00;;
10896;SDS011;5501;51.176;6.470;2023-02-28T09:44:40;1.15;;;1.05;;
10896;SDS011;5501;51.176;6.470;2023-02-28T09:49:46;1.13;;;1.02;;
10896;SDS011;5501;51.176;6.470;2023-02-28T09:54:49;1.40;;;1.05;;
10896;SDS011;5501;51.176;6.470;2023-02-28T10:05:19;3.42;;;1.20;;
10896;SDS011;5501;51.176;6.470;2023-02-28T10:15:33;1.17;;;1.00;;
10896;SDS011;5501;51.176;6.470;2023-02-28T10:20:37;1.23;;;1.10;;
10896;SDS011;5501;51.176;6.470;2023-02-28T10:25:41;1.60;;;1.17;;
10896;SDS011;5501;51.176;6.470;2023-02-28T10:30:50;0.98;;;0.93;;
10896;SDS011;5501;51.176;6.470;2023-02-28T10:35:53;1.08;;;0.90;;
10896;SDS011;5501;51.176;6.470;2023-02-28T10:41:05;3.88;;;1.15;;
10896;SDS011;5501;51.176;6.470;2023-02-28T10:51:11;2.08;;;1.25;;
10896;SDS011;5501;51.176;6.470;2023-02-28T10:56:15;1.40;;;1.10;;
10896;SDS011;5501;51.176;6.470;2023-02-28T11:06:42;1.20;;;1.10;;
10896;SDS011;5501;51.176;6.470;2023-02-28T11:11:44;3.50;;;1.05;;
10896;SDS011;5501;51.176;6.470;2023-02-28T11:16:49;1.33;;;1.08;;
10896;SDS011;5501;51.176;6.470;2023-02-28T11:21:53;1.27;;;1.17;;
10896;SDS011;5501;51.176;6.470;2023-02-28T11:26:58;1.77;;;1.10;;
10896;SDS011;5501;51.176;6.470;2023-02-28T11:37:12;1.00;;;0.93;;
10896;SDS011;5501;51.176;6.470;2023-02-28T11:47:38;3.15;;;1.50;;
10896;SDS011;5501;51.176;6.470;2023-02-28T11:52:52;2.00;;;1.10;;
10896;SDS011;5501;51.176;6.470;2023-02-28T12:25:21;1.88;;;1.63;;
10896;SDS011;5501;51.176;6.470;2023-02-28T12:30:59;1.58;;;1.48;;
10896;SDS011;5501;51.176;6.470;2023-02-28T12:36:05;2.05;;;1.60;;
10896;SDS011;5501;51.176;6.470;2023-02-28T12:41:12;1.27;;;1.08;;
10896;SDS011;5501;51.176;6.470;2023-02-28T12:46:19;1.95;;;1.45;;
10896;SDS011;5501;51.176;6.470;2023-02-28T12:51:25;1.80;;;1.35;;
10896;SDS011;5501;51.176;6.470;2023-02-28T12:56:37;1.50;;;1.33;;
10896;SDS011;5501;51.176;6.470;2023-02-28T13:07:06;2.05;;;1.45;;
10896;SDS011;5501;51.176;6.470;2023-02-28T13:12:13;1.50;;;1.38;;
10896;SDS011;5501;51.176;6.470;2023-02-28T13:17:20;1.65;;;1.13;;
10896;SDS011;5501;51.176;6.470;2023-02-28T13:27:34;1.98;;;1.60;;
10896;SDS011;5501;51.176;6.470;2023-02-28T13:32:41;2.10;;;1.63;;
10896;SDS011;5501;51.176;6.470;2023-02-28T13:37:43;1.67;;;1.58;;
10896;SDS011;5501;51.176;6.470;2023-02-28T13:47:54;2.03;;;1.67;;
10896;SDS011;5501;51.176;6.470;2023-02-28T13:58:28;2.55;;;1.55;;
10896;SDS011;5501;51.176;6.470;2023-02-28T14:03:38;2.17;;;1.55;;
10896;SDS011;5501;51.176;6.470;2023-02-28T14:08:57;4.50;;;1.15;;
10896;SDS011;5501;51.176;6.470;2023-02-28T14:14:02;1.60;;;1.20;;
10896;SDS011;5501;51.176;6.470;2023-02-28T14:19:10;1.40;;;1.30;;
10896;SDS011;5501;51.176;6.470;2023-02-28T14:40:16;2.33;;;1.95;;
10896;SDS011;5501;51.176;6.470;2023-02-28T14:45:22;2.95;;;1.70;;
10896;SDS011;5501;51.176;6.470;2023-02-28T14:50:27;9.68;;;2.55;;
10896;SDS011;5501;51.176;6.470;2023-02-28T14:55:33;2.20;;;1.50;;
10896;SDS011;5501;51.176;6.470;2023-02-28T15:00:37;2.30;;;1.45;;
10896;SDS011;5501;51.176;6.470;2023-02-28T15:05:56;2.83;;;1.70;;
10896;SDS011;5501;51.176;6.470;2023-02-28T15:10:59;1.88;;;1.20;;
10896;SDS011;5501;51.176;6.470;2023-02-28T15:16:35;2.05;;;1.50;;
10896;SDS011;5501;51.176;6.470;2023-02-28T15:21:43;2.25;;;1.52;;
10896;SDS011;5501;51.176;6.470;2023-02-28T15:26:49;2.60;;;1.60;;
10896;SDS011;5501;51.176;6.470;2023-02-28T15:31:56;3.28;;;1.95;;
10896;SDS011;5501;51.176;6.470;2023-02-28T15:37:06;6.30;;;1.90;;
10896;SDS011;5501;51.176;6.470;2023-02-28T15:42:29;2.25;;;1.23;;
10896;SDS011;5501;51.176;6.470;2023-02-28T15:47:32;1.75;;;1.52;;
10896;SDS011;5501;51.176;6.470;2023-02-28T15:52:43;2.17;;;1.75;;
10896;SDS011;5501;51.176;6.470;2023-02-28T15:57:47;4.07;;;1.60;;
10896;SDS011;5501;51.176;6.470;2023-02-28T16:02:51;2.55;;;1.70;;
10896;SDS011;5501;51.176;6.470;2023-02-28T16:07:54;2.00;;;1.52;;
10896;SDS011;5501;51.176;6.470;2023-02-28T16:13:01;1.80;;;1.65;;
10896;SDS011;5501;51.176;6.470;2023-02-28T16:18:03;1.83;;;1.48;;
10896;SDS011;5501;51.176;6.470;2023-02-28T16:23:05;4.80;;;2.10;;
10896;SDS011;5501;51.176;6.470;2023-02-28T16:28:12;1.85;;;1.73;;
10896;SDS011;5501;51.176;6.470;2023-02-28T16:33:20;2.15;;;1.85;;
10896;SDS011;5501;51.176;6.470;2023-02-28T16:38:22;1.67;;;1.38;;
10896;SDS011;5501;51.176;6.470;2023-02-28T16:43:26;2.55;;;1.67;;
10896;SDS011;5501;51.176;6.470;2023-02-28T16:48:28;1.90;;;1.67;;
10896;SDS011;5501;51.176;6.470;2023-02-28T16:53:31;2.17;;;1.77;;
10896;SDS011;5501;51.176;6.470;2023-02-28T16:58:33;4.22;;;1.85;;
10896;SDS011;5501;51.176;6.470;2023-02-28T17:03:36;4.30;;;1.80;;
10896;SDS011;5501;51.176;6.470;2023-02-28T17:08:38;3.60;;;2.50;;
10896;SDS011;5501;51.176;6.470;2023-02-28T17:13:40;5.07;;;3.47;;
10896;SDS011;5501;51.176;6.470;2023-02-28T17:18:41;6.43;;;2.35;;
10896;SDS011;5501;51.176;6.470;2023-02-28T17:23:43;4.50;;;2.10;;
10896;SDS011;5501;51.176;6.470;2023-02-28T17:28:45;3.53;;;1.85;;
10896;SDS011;5501;51.176;6.470;2023-02-28T17:33:47;1.65;;;1.48;;
10896;SDS011;5501;51.176;6.470;2023-02-28T17:38:49;2.20;;;2.00;;
10896;SDS011;5501;51.176;6.470;2023-02-28T17:43:51;2.72;;;1.73;;
10896;SDS011;5501;51.176;6.470;2023-02-28T17:48:53;3.90;;;1.95;;
10896;SDS011;5501;51.176;6.470;2023-02-28T17:53:55;3.28;;;2.22;;
10896;SDS011;5501;51.176;6.470;2023-02-28T17:58:58;3.10;;;2.22;;
10896;SDS011;5501;51.176;6.470;2023-02-28T18:03:59;4.32;;;2.45;;
10896;SDS011;5501;51.176;6.470;2023-02-28T18:09:01;4.05;;;2.50;;
10896;SDS011;5501;51.176;6.470;2023-02-28T18:14:04;2.67;;;2.08;;
10896;SDS011;5501;51.176;6.470;2023-02-28T18:19:05;1.95;;;1.83;;
10896;SDS011;5501;51.176;6.470;2023-02-28T18:24:07;2.17;;;1.85;;
10896;SDS011;5501;51.176;6.470;2023-02-28T18:29:14;4.35;;;2.50;;
10896;SDS011;5501;51.176;6.470;2023-02-28T18:34:16;3.58;;;2.80;;
10896;SDS011;5501;51.176;6.470;2023-02-28T18:39:17;5.80;;;2.42;;
10896;SDS011;5501;51.176;6.470;2023-02-28T18:44:19;6.93;;;2.38;;
10896;SDS011;5501;51.176;6.470;2023-02-28T18:49:21;2.55;;;2.25;;
10896;SDS011;5501;51.176;6.470;2023-02-28T18:54:23;3.05;;;1.90;;
10896;SDS011;5501;51.176;6.470;2023-02-28T18:59:24;3.65;;;2.30;;
10896;SDS011;5501;51.176;6.470;2023-02-28T19:04:26;3.35;;;2.47;;
10896;SDS011;5501;51.176;6.470;2023-02-28T19:09:27;2.67;;;2.30;;
10896;SDS011;5501;51.176;6.470;2023-02-28T19:14:29;9.63;;;2.28;;
10896;SDS011;5501;51.176;6.470;2023-02-28T19:19:30;4.97;;;1.83;;
10896;SDS011;5501;51.176;6.470;2023-02-28T19:24:32;3.92;;;2.25;;
10896;SDS011;5501;51.176;6.470;2023-02-28T19:29:33;2.20;;;1.98;;
10896;SDS011;5501;51.176;6.470;2023-02-28T19:34:35;4.22;;;2.30;;
10896;SDS011;5501;51.176;6.470;2023-02-28T19:39:36;4.03;;;2.53;;
10896;SDS011;5501;51.176;6.470;2023-02-28T19:44:41;3.20;;;2.45;;
10896;SDS011;5501;51.176;6.470;2023-02-28T19:49:45;3.50;;;2.17;;
10896;SDS011;5501;51.176;6.470;2023-02-28T19:54:46;4.45;;;2.90;;
10896;SDS011;5501;51.176;6.470;2023-02-28T19:59:48;4.90;;;3.10;;
10896;SDS011;5501;51.176;6.470;2023-02-28T20:04:52;5.50;;;2.85;;
10896;SDS011;5501;51.176;6.470;2023-02-28T20:09:55;4.88;;;2.67;;
10896;SDS011;5501;51.176;6.470;2023-02-28T20:14:56;8.35;;;2.83;;
10896;SDS011;5501;51.176;6.470;2023-02-28T20:20:00;3.75;;;2.55;;
10896;SDS011;5501;51.176;6.470;2023-02-28T20:25:01;3.33;;;2.47;;
10896;SDS011;5501;51.176;6.470;2023-02-28T20:30:03;5.13;;;3.10;;
10896;SDS011;5501;51.176;6.470;2023-02-28T20:35:06;5.18;;;3.03;;
10896;SDS011;5501;51.176;6.470;2023-02-28T20:40:09;8.77;;;2.80;;
10896;SDS011;5501;51.176;6.470;2023-02-28T20:45:11;7.10;;;3.33;;
10896;SDS011;5501;51.176;6.470;2023-02-28T20:50:12;6.10;;;2.78;;
10896;SDS011;5501;51.176;6.470;2023-02-28T20:55:14;2.85;;;2.25;;
10896;SDS011;5501;51.176;6.470;2023-02-28T21:00:15;3.55;;;2.83;;
10896;SDS011;5501;51.176;6.470;2023-02-28T21:05:19;7.20;;;2.75;;
10896;SDS011;5501;51.176;6.470;2023-02-28T21:10:21;4.10;;;2.20;;
10896;SDS011;5501;51.176;6.470;2023-02-28T21:15:23;9.07;;;2.78;;
10896;SDS011;5501;51.176;6.470;2023-02-28T21:20:24;3.10;;;2.75;;
10896;SDS011;5501;51.176;6.470;2023-02-28T21:25:26;7.93;;;3.05;;
10896;SDS011;5501;51.176;6.470;2023-02-28T21:30:28;4.18;;;3.05;;
10896;SDS011;5501;51.176;6.470;2023-02-28T21:35:30;5.13;;;2.88;;
10896;SDS011;5501;51.176;6.470;2023-02-28T21:40:32;4.80;;;2.97;;
10896;SDS011;5501;51.176;6.470;2023-02-28T21:45:33;6.80;;;3.25;;
10896;SDS011;5501;51.176;6.470;2023-02-28T21:50:35;5.00;;;3.25;;
10896;SDS011;5501;51.176;6.470;2023-02-28T21:55:36;5.18;;;3.80;;
10896;SDS011;5501;51.176;6.470;2023-02-28T22:00:38;4.90;;;3.35;;
10896;SDS011;5501;51.176;6.470;2023-02-28T22:05:41;8.68;;;3.75;;
10896;SDS011;5501;51.176;6.470;2023-02-28T22:10:42;5.68;;;3.05;;
10896;SDS011;5501;51.176;6.470;2023-02-28T22:15:44;3.83;;;3.00;;
10896;SDS011;5501;51.176;6.470;2023-02-28T22:20:52;5.00;;;3.10;;
10896;SDS011;5501;51.176;6.470;2023-02-28T22:25:54;5.63;;;3.50;;
10896;SDS011;5501;51.176;6.470;2023-02-28T22:30:56;6.30;;;4.30;;
10896;SDS011;5501;51.176;6.470;2023-02-28T22:36:00;6.50;;;3.58;;
10896;SDS011;5501;51.176;6.470;2023-02-28T22:41:05;6.65;;;3.25;;
10896;SDS011;5501;51.176;6.470;2023-02-28T22:46:09;5.75;;;3.72;;
10896;SDS011;5501;51.176;6.470;2023-02-28T22:51:14;8.50;;;3.85;;
10896;SDS011;5501;51.176;6.470;2023-02-28T22:56:17;4.95;;;2.88;;
10896;SDS011;5501;51.176;6.470;2023-02-28T23:01:21;7.60;;;3.83;;
10896;SDS011;5501;51.176;6.470;2023-02-28T23:06:29;7.53;;;3.75;;
10896;SDS011;5501;51.176;6.470;2023-02-28T23:11:35;5.47;;;4.00;;
10896;SDS011;5501;51.176;6.470;2023-02-28T23:21:43;3.70;;;3.05;;
10896;SDS011;5501;51.176;6.470;2023-02-28T23:26:46;9.15;;;4.05;;
10896;SDS011;5501;51.176;6.470;2023-02-28T23:31:50;5.20;;;3.90;;
10896;SDS011;5501;51.176;6.470;2023-02-28T23:36:52;5.38;;;3.85;;
10896;SDS011;5501;51.176;6.470;2023-02-28T23:41:55;8.85;;;3.90;;
10896;SDS011;5501;51.176;6.470;2023-02-28T23:46:57;4.07;;;3.03;;
10896;SDS011;5501;51.176;6.470;2023-02-28T23:51:59;4.85;;;3.30;;
10896;SDS011;5501;51.176;6.470;2023-02-28T23:57:01;8.27;;;4.18;;
